Pulpca — PHMT — position and weather

sailwx.info

Track history (hours):
 
Tides and Currents Weather Stations Pressure Air Temp Water Temp Dewpoint Dewpoint Depression Visibility Wind Speed Wind Dir Waves Ship Positions

Pulpca

Last reported at 2017-Feb-20 19:33 UTC. Time now 2017-Feb-22 04:13 UTC.
Position N 59°33' E 021°27'.

Length 205 m; draft 7.7 m.

Type: Ship (hazmat cat A). MMSI: 245097000.

Date/timePositionNaut miles runAvg speedWind from/ knotsBaromVisibWave heightAir tempDewpointWater temp
2017-Feb-20 19:33N 59°33' E 021°27'4520.8
2017-Feb-20 17:23N 59°40' E 022°55'9 1.4
2017-Feb-20 11:07N 59°49' E 022°57'3 5.8
2017-Feb-20 10:31N 59°46' E 023°01'0 0.5
2017-Feb-20 09:33N 59°46' E 023°02'30018.4
2017-Feb-19 17:15N 56°02' E 016°45'1319.0
2017-Feb-19 16:33N 55°58' E 016°23'1919.1
2017-Feb-19 15:33N 55°48' E 015°54'1918.9
2017-Feb-19 14:33N 55°39' E 015°24'1919.0
2017-Feb-19 13:33N 55°29' E 014°56'1918.6
2017-Feb-19 12:33N 55°17' E 014°31'1919.1
2017-Feb-19 11:33N 55°02' E 014°10'1919.1
2017-Feb-19 10:33N 54°55' E 013°39'2019.0
2017-Feb-19 09:31N 54°49' E 013°06'3818.3
2017-Feb-19 07:28N 54°28' E 012°13'1617.4
2017-Feb-19 06:33N 54°25' E 011°46'1919.1
2017-Feb-19 05:33N 54°33' E 011°16'1918.7
2017-Feb-19 04:33N 54°34' E 010°44'38 8.6
2017-Feb-19 00:07N 54°20' E 009°43'5 6.8
2017-Feb-18 23:27N 54°16' E 009°38'8 7.6
2017-Feb-18 22:21N 54°11' E 009°27'3 3.8
2017-Feb-18 21:33N 54°09' E 009°23'7 7.3
2017-Feb-18 20:33N 54°03' E 009°18'6 6.4
2017-Feb-18 19:33N 53°57' E 009°14'4 4.1
2017-Feb-18 18:33N 53°54' E 009°09'2 1.8
2017-Feb-18 17:33N 53°53' E 009°06'6 6.1
2017-Feb-18 16:34N 53°51' E 008°57'1818.1
2017-Feb-18 15:33N 53°58' E 008°29'2019.8
2017-Feb-18 14:33N 53°58' E 007°55'3818.9
2017-Feb-18 12:31N 53°50' E 006°51'3719.0
2017-Feb-18 10:33N 53°40' E 005°50'2019.2
2017-Feb-18 09:32N 53°33' E 005°19'2019.1
2017-Feb-18 08:28N 53°25' E 004°48'1819.3
2017-Feb-18 07:32N 53°11' E 004°30'1919.1
2017-Feb-18 06:33N 52°53' E 004°19'1919.1
2017-Feb-18 05:33N 52°38' E 003°59'2319.7
2017-Feb-18 04:22N 52°21' E 003°33'1619.6
2017-Feb-18 03:33N 52°06' E 003°25'2019.5
2017-Feb-18 02:32N 51°47' E 003°15'1919.0
2017-Feb-18 01:33N 51°30' E 003°04'1211.9
2017-Feb-18 00:34N 51°24' E 003°21'1716.5
2017-Feb-17 23:33N 51°21' E 003°47'1212.2
2017-Feb-17 22:33N 51°22' E 004°07'9 9.2
2017-Feb-17 21:34N 51°16' E 004°17'2 1.8
2017-Feb-17 20:34N 51°16' E 004°14'1 0.7
2017-Feb-17 19:33N 51°15' E 004°14'0 0.0
2017-Feb-17 18:31N 51°15' E 004°14'0 0.0
2017-Feb-17 17:31N 51°15' E 004°14'0 0.0
2017-Feb-17 16:31N 51°15' E 004°14'0 0.0
2017-Feb-17 15:31N 51°15' E 004°14'0 0.0
2017-Feb-17 14:31N 51°15' E 004°14'0 0.0
2017-Feb-17 13:28N 51°15' E 004°14'0 0.0
2017-Feb-17 12:28N 51°15' E 004°14'0 0.0
2017-Feb-17 11:31N 51°15' E 004°14'0 0.0
2017-Feb-17 10:28N 51°15' E 004°14'0 0.0
2017-Feb-17 09:28N 51°15' E 004°14'0 0.0
2017-Feb-17 08:31N 51°15' E 004°14'0 0.0
2017-Feb-17 07:31N 51°15' E 004°14'0 0.0
2017-Feb-17 06:31N 51°15' E 004°14'0 0.0
2017-Feb-17 05:31N 51°15' E 004°14'0 0.0
2017-Feb-17 04:31N 51°15' E 004°14'0 0.0
2017-Feb-17 03:31N 51°15' E 004°14'0 0.0
2017-Feb-17 02:31N 51°15' E 004°14'0 0.0
2017-Feb-17 01:31N 51°15' E 004°14'0 0.0
2017-Feb-17 00:31N 51°15' E 004°14'0 0.0
2017-Feb-16 23:31N 51°15' E 004°14'0 0.0
2017-Feb-16 22:31N 51°15' E 004°14'0 0.0
2017-Feb-16 21:31N 51°15' E 004°14'0 0.0
2017-Feb-16 20:31N 51°15' E 004°14'0 0.0
2017-Feb-16 19:31N 51°15' E 004°14'0 0.0
2017-Feb-16 18:31N 51°15' E 004°14'0 0.0
2017-Feb-16 17:31N 51°15' E 004°14'0 0.0
2017-Feb-16 16:31N 51°15' E 004°14'0 0.0
2017-Feb-16 15:31N 51°15' E 004°14'0 0.0
2017-Feb-16 14:31N 51°15' E 004°14'0 0.0
2017-Feb-16 13:31N 51°15' E 004°14'0 0.0
2017-Feb-16 12:31N 51°15' E 004°14'0 0.0
2017-Feb-16 11:31N 51°15' E 004°14'0 0.0
2017-Feb-16 10:31N 51°15' E 004°14'0 0.0
2017-Feb-16 09:28N 51°15' E 004°14'0 0.0
2017-Feb-16 08:31N 51°15' E 004°14'0 0.0
2017-Feb-16 07:31N 51°15' E 004°14'0 0.0
2017-Feb-16 06:31N 51°15' E 004°14'0 0.0
2017-Feb-16 05:31N 51°15' E 004°14'0 0.0
2017-Feb-16 04:31N 51°15' E 004°14'0 0.0
2017-Feb-16 03:31N 51°15' E 004°14'0 0.0
2017-Feb-16 02:28N 51°15' E 004°14'0 0.0
2017-Feb-16 01:31N 51°15' E 004°14'0 0.0
2017-Feb-16 00:31N 51°15' E 004°14'0 0.0
2017-Feb-15 23:31N 51°15' E 004°14'0 0.0
2017-Feb-15 22:31N 51°15' E 004°14'0 0.0
2017-Feb-15 21:31N 51°15' E 004°14'0 0.3
2017-Feb-15 20:28N 51°16' E 004°14'0 0.0
2017-Feb-15 19:31N 51°16' E 004°14'0 0.0
2017-Feb-15 18:28N 51°16' E 004°14'0 0.0
2017-Feb-15 17:28N 51°16' E 004°14'0 0.0
2017-Feb-15 16:28N 51°16' E 004°14'0 0.0
2017-Feb-15 15:31N 51°16' E 004°14'0 0.0
2017-Feb-15 14:31N 51°16' E 004°14'0 0.0
2017-Feb-15 13:28N 51°16' E 004°14'0 0.0
2017-Feb-15 12:31N 51°16' E 004°14'0 0.0
2017-Feb-15 11:31N 51°16' E 004°14'0 0.0
2017-Feb-15 10:31N 51°16' E 004°14'0 0.0
2017-Feb-15 09:28N 51°16' E 004°14'0 0.0
2017-Feb-15 08:31N 51°16' E 004°14'0 0.1
2017-Feb-15 07:25N 51°15' E 004°14'0 0.3
2017-Feb-15 06:33N 51°15' E 004°14'0 0.0
2017-Feb-15 05:33N 51°15' E 004°14'0 0.0
2017-Feb-15 04:32N 51°15' E 004°14'0 0.0
2017-Feb-15 03:32N 51°15' E 004°14'0 0.0
2017-Feb-15 02:32N 51°15' E 004°14'0 0.0
2017-Feb-15 01:32N 51°15' E 004°14'0 0.0
2017-Feb-15 00:33N 51°15' E 004°14'0 0.0
2017-Feb-14 23:33N 51°15' E 004°14'0 0.0
2017-Feb-14 22:32N 51°15' E 004°14'0 0.0
2017-Feb-14 21:32N 51°15' E 004°14'0 0.0
2017-Feb-14 20:32N 51°15' E 004°14'0 0.0
2017-Feb-14 19:33N 51°15' E 004°14'0 0.0
2017-Feb-14 18:32N 51°15' E 004°14'0 0.0
2017-Feb-14 17:30N 51°15' E 004°14'0 0.0
2017-Feb-14 16:32N 51°15' E 004°14'0 0.0
2017-Feb-14 15:32N 51°15' E 004°14'0 0.0
2017-Feb-14 14:32N 51°15' E 004°14'0 0.0
2017-Feb-14 13:32N 51°15' E 004°14'0 0.0
2017-Feb-14 12:32N 51°15' E 004°14'0 0.0
2017-Feb-14 11:33N 51°15' E 004°14'2 1.6
2017-Feb-14 10:33N 51°17' E 004°15'4 4.0
2017-Feb-14 09:33N 51°21' E 004°16'1110.7
2017-Feb-14 08:33N 51°26' E 004°01'1211.5
2017-Feb-14 07:33N 51°23' E 003°43'1010.1
2017-Feb-14 06:33N 51°25' E 003°27'1414.1
2017-Feb-14 05:34N 51°24' E 003°05'1211.7
2017-Feb-14 04:33N 51°36' E 003°10'1614.9
2017-Feb-14 03:29N 51°51' E 003°16'1314.4
2017-Feb-14 02:33N 52°04' E 003°21'7714.0
2017-Feb-13 21:06N 53°10' E 004°24'814.6
2017-Feb-13 20:33N 53°18' E 004°30'1514.3
2017-Feb-13 19:31N 53°30' E 004°44'12615.3
2017-Feb-13 11:17N 54°01' E 008°11'5 7.4
2017-Feb-13 10:33N 53°60' E 008°20'1414.0
2017-Feb-13 09:33N 53°54' E 008°42'1414.3
2017-Feb-13 08:34N 53°53' E 009°06'3 3.2
2017-Feb-13 07:33N 53°54' E 009°10'8 8.1
2017-Feb-13 06:33N 54°01' E 009°18'8 8.1
2017-Feb-13 05:34N 54°09' E 009°21'46 5.6
2017-Feb-12 21:26N 54°32' E 010°28'1517.1
2017-Feb-12 20:33N 54°36' E 010°54'1717.3
2017-Feb-12 19:33N 54°33' E 011°23'1716.9
2017-Feb-12 18:33N 54°27' E 011°50'1414.2
2017-Feb-12 17:33N 54°31' E 012°13'5116.3
2017-Feb-12 14:24N 54°57' E 013°30'1417.0
2017-Feb-12 13:33N 55°03' E 013°53'1716.6
2017-Feb-12 12:33N 55°13' E 014°16'1717.1
2017-Feb-12 11:33N 55°26' E 014°36'1716.8
2017-Feb-12 10:33N 55°35' E 014°60'35416.8
2017-Feb-11 13:29N 59°40' E 022°59'6 0.6
2017-Feb-11 03:33N 59°46' E 023°01'1717.1
2017-Feb-11 02:34N 59°42' E 023°34'5517.9
2017-Feb-10 23:29N 59°53' E 025°21'1616.4
2017-Feb-10 22:28N 59°58' E 025°53'1314.4
2017-Feb-10 21:33N 60°06' E 026°14'1515.0
2017-Feb-10 20:33N 60°18' E 026°32'  
Track history (hours):
 
Tides and Currents Weather Stations Pressure Air Temp Water Temp Dewpoint Dewpoint Depression Visibility Wind Speed Wind Dir Waves Ship Positions

Pulpca

Last reported at 2017-Feb-20 19:33 UTC. Time now 2017-Feb-22 04:13 UTC.
Position N 59°33' E 021°27'.

Length 205 m; draft 7.7 m.

Type: Ship (hazmat cat A). MMSI: 245097000.

Date/timePositionNaut miles runAvg speedWind from/ knotsBaromVisibWave heightAir tempDewpointWater temp
2017-Feb-20 19:33N 59°33' E 021°27'4520.8
2017-Feb-20 17:23N 59°40' E 022°55'9 1.4
2017-Feb-20 11:07N 59°49' E 022°57'3 5.8
2017-Feb-20 10:31N 59°46' E 023°01'0 0.5
2017-Feb-20 09:33N 59°46' E 023°02'30018.4
2017-Feb-19 17:15N 56°02' E 016°45'1319.0
2017-Feb-19 16:33N 55°58' E 016°23'1919.1
2017-Feb-19 15:33N 55°48' E 015°54'1918.9
2017-Feb-19 14:33N 55°39' E 015°24'1919.0
2017-Feb-19 13:33N 55°29' E 014°56'1918.6
2017-Feb-19 12:33N 55°17' E 014°31'1919.1
2017-Feb-19 11:33N 55°02' E 014°10'1919.1
2017-Feb-19 10:33N 54°55' E 013°39'2019.0
2017-Feb-19 09:31N 54°49' E 013°06'3818.3
2017-Feb-19 07:28N 54°28' E 012°13'1617.4
2017-Feb-19 06:33N 54°25' E 011°46'1919.1
2017-Feb-19 05:33N 54°33' E 011°16'1918.7
2017-Feb-19 04:33N 54°34' E 010°44'38 8.6
2017-Feb-19 00:07N 54°20' E 009°43'5 6.8
2017-Feb-18 23:27N 54°16' E 009°38'8 7.6
2017-Feb-18 22:21N 54°11' E 009°27'3 3.8
2017-Feb-18 21:33N 54°09' E 009°23'7 7.3
2017-Feb-18 20:33N 54°03' E 009°18'6 6.4
2017-Feb-18 19:33N 53°57' E 009°14'4 4.1
2017-Feb-18 18:33N 53°54' E 009°09'2 1.8
2017-Feb-18 17:33N 53°53' E 009°06'6 6.1
2017-Feb-18 16:34N 53°51' E 008°57'1818.1
2017-Feb-18 15:33N 53°58' E 008°29'2019.8
2017-Feb-18 14:33N 53°58' E 007°55'3818.9
2017-Feb-18 12:31N 53°50' E 006°51'3719.0
2017-Feb-18 10:33N 53°40' E 005°50'2019.2
2017-Feb-18 09:32N 53°33' E 005°19'2019.1
2017-Feb-18 08:28N 53°25' E 004°48'1819.3
2017-Feb-18 07:32N 53°11' E 004°30'1919.1
2017-Feb-18 06:33N 52°53' E 004°19'1919.1
2017-Feb-18 05:33N 52°38' E 003°59'2319.7
2017-Feb-18 04:22N 52°21' E 003°33'1619.6
2017-Feb-18 03:33N 52°06' E 003°25'2019.5
2017-Feb-18 02:32N 51°47' E 003°15'1919.0
2017-Feb-18 01:33N 51°30' E 003°04'1211.9
2017-Feb-18 00:34N 51°24' E 003°21'1716.5
2017-Feb-17 23:33N 51°21' E 003°47'1212.2
2017-Feb-17 22:33N 51°22' E 004°07'9 9.2
2017-Feb-17 21:34N 51°16' E 004°17'2 1.8
2017-Feb-17 20:34N 51°16' E 004°14'1 0.7
2017-Feb-17 19:33N 51°15' E 004°14'0 0.0
2017-Feb-17 18:31N 51°15' E 004°14'0 0.0
2017-Feb-17 17:31N 51°15' E 004°14'0 0.0
2017-Feb-17 16:31N 51°15' E 004°14'0 0.0
2017-Feb-17 15:31N 51°15' E 004°14'0 0.0
2017-Feb-17 14:31N 51°15' E 004°14'0 0.0
2017-Feb-17 13:28N 51°15' E 004°14'0 0.0
2017-Feb-17 12:28N 51°15' E 004°14'0 0.0
2017-Feb-17 11:31N 51°15' E 004°14'0 0.0
2017-Feb-17 10:28N 51°15' E 004°14'0 0.0
2017-Feb-17 09:28N 51°15' E 004°14'0 0.0
2017-Feb-17 08:31N 51°15' E 004°14'0 0.0
2017-Feb-17 07:31N 51°15' E 004°14'0 0.0
2017-Feb-17 06:31N 51°15' E 004°14'0 0.0
2017-Feb-17 05:31N 51°15' E 004°14'0 0.0
2017-Feb-17 04:31N 51°15' E 004°14'0 0.0
2017-Feb-17 03:31N 51°15' E 004°14'0 0.0
2017-Feb-17 02:31N 51°15' E 004°14'0 0.0
2017-Feb-17 01:31N 51°15' E 004°14'0 0.0
2017-Feb-17 00:31N 51°15' E 004°14'0 0.0
2017-Feb-16 23:31N 51°15' E 004°14'0 0.0
2017-Feb-16 22:31N 51°15' E 004°14'0 0.0
2017-Feb-16 21:31N 51°15' E 004°14'0 0.0
2017-Feb-16 20:31N 51°15' E 004°14'0 0.0
2017-Feb-16 19:31N 51°15' E 004°14'0 0.0
2017-Feb-16 18:31N 51°15' E 004°14'0 0.0
2017-Feb-16 17:31N 51°15' E 004°14'0 0.0
2017-Feb-16 16:31N 51°15' E 004°14'0 0.0
2017-Feb-16 15:31N 51°15' E 004°14'0 0.0
2017-Feb-16 14:31N 51°15' E 004°14'0 0.0
2017-Feb-16 13:31N 51°15' E 004°14'0 0.0
2017-Feb-16 12:31N 51°15' E 004°14'0 0.0
2017-Feb-16 11:31N 51°15' E 004°14'0 0.0
2017-Feb-16 10:31N 51°15' E 004°14'0 0.0
2017-Feb-16 09:28N 51°15' E 004°14'0 0.0
2017-Feb-16 08:31N 51°15' E 004°14'0 0.0
2017-Feb-16 07:31N 51°15' E 004°14'0 0.0
2017-Feb-16 06:31N 51°15' E 004°14'0 0.0
2017-Feb-16 05:31N 51°15' E 004°14'0 0.0
2017-Feb-16 04:31N 51°15' E 004°14'0 0.0
2017-Feb-16 03:31N 51°15' E 004°14'0 0.0
2017-Feb-16 02:28N 51°15' E 004°14'0 0.0
2017-Feb-16 01:31N 51°15' E 004°14'0 0.0
2017-Feb-16 00:31N 51°15' E 004°14'0 0.0
2017-Feb-15 23:31N 51°15' E 004°14'0 0.0
2017-Feb-15 22:31N 51°15' E 004°14'0 0.0
2017-Feb-15 21:31N 51°15' E 004°14'0 0.3
2017-Feb-15 20:28N 51°16' E 004°14'0 0.0
2017-Feb-15 19:31N 51°16' E 004°14'0 0.0
2017-Feb-15 18:28N 51°16' E 004°14'0 0.0
2017-Feb-15 17:28N 51°16' E 004°14'0 0.0
2017-Feb-15 16:28N 51°16' E 004°14'0 0.0
2017-Feb-15 15:31N 51°16' E 004°14'0 0.0
2017-Feb-15 14:31N 51°16' E 004°14'0 0.0
2017-Feb-15 13:28N 51°16' E 004°14'0 0.0
2017-Feb-15 12:31N 51°16' E 004°14'0 0.0
2017-Feb-15 11:31N 51°16' E 004°14'0 0.0
2017-Feb-15 10:31N 51°16' E 004°14'0 0.0
2017-Feb-15 09:28N 51°16' E 004°14'0 0.0
2017-Feb-15 08:31N 51°16' E 004°14'0 0.1
2017-Feb-15 07:25N 51°15' E 004°14'0 0.3
2017-Feb-15 06:33N 51°15' E 004°14'0 0.0
2017-Feb-15 05:33N 51°15' E 004°14'0 0.0
2017-Feb-15 04:32N 51°15' E 004°14'0 0.0
2017-Feb-15 03:32N 51°15' E 004°14'0 0.0
2017-Feb-15 02:32N 51°15' E 004°14'0 0.0
2017-Feb-15 01:32N 51°15' E 004°14'0 0.0
2017-Feb-15 00:33N 51°15' E 004°14'0 0.0
2017-Feb-14 23:33N 51°15' E 004°14'0 0.0
2017-Feb-14 22:32N 51°15' E 004°14'0 0.0
2017-Feb-14 21:32N 51°15' E 004°14'0 0.0
2017-Feb-14 20:32N 51°15' E 004°14'0 0.0
2017-Feb-14 19:33N 51°15' E 004°14'0 0.0
2017-Feb-14 18:32N 51°15' E 004°14'0 0.0
2017-Feb-14 17:30N 51°15' E 004°14'0 0.0
2017-Feb-14 16:32N 51°15' E 004°14'0 0.0
2017-Feb-14 15:32N 51°15' E 004°14'0 0.0
2017-Feb-14 14:32N 51°15' E 004°14'0 0.0
2017-Feb-14 13:32N 51°15' E 004°14'0 0.0
2017-Feb-14 12:32N 51°15' E 004°14'0 0.0
2017-Feb-14 11:33N 51°15' E 004°14'2 1.6
2017-Feb-14 10:33N 51°17' E 004°15'4 4.0
2017-Feb-14 09:33N 51°21' E 004°16'1110.7
2017-Feb-14 08:33N 51°26' E 004°01'1211.5
2017-Feb-14 07:33N 51°23' E 003°43'1010.1
2017-Feb-14 06:33N 51°25' E 003°27'1414.1
2017-Feb-14 05:34N 51°24' E 003°05'1211.7
2017-Feb-14 04:33N 51°36' E 003°10'1614.9
2017-Feb-14 03:29N 51°51' E 003°16'1314.4
2017-Feb-14 02:33N 52°04' E 003°21'7714.0
2017-Feb-13 21:06N 53°10' E 004°24'814.6
2017-Feb-13 20:33N 53°18' E 004°30'1514.3
2017-Feb-13 19:31N 53°30' E 004°44'12615.3
2017-Feb-13 11:17N 54°01' E 008°11'5 7.4
2017-Feb-13 10:33N 53°60' E 008°20'1414.0
2017-Feb-13 09:33N 53°54' E 008°42'1414.3
2017-Feb-13 08:34N 53°53' E 009°06'3 3.2
2017-Feb-13 07:33N 53°54' E 009°10'8 8.1
2017-Feb-13 06:33N 54°01' E 009°18'8 8.1
2017-Feb-13 05:34N 54°09' E 009°21'46 5.6
2017-Feb-12 21:26N 54°32' E 010°28'1517.1
2017-Feb-12 20:33N 54°36' E 010°54'1717.3
2017-Feb-12 19:33N 54°33' E 011°23'1716.9
2017-Feb-12 18:33N 54°27' E 011°50'1414.2
2017-Feb-12 17:33N 54°31' E 012°13'5116.3
2017-Feb-12 14:24N 54°57' E 013°30'1417.0
2017-Feb-12 13:33N 55°03' E 013°53'1716.6
2017-Feb-12 12:33N 55°13' E 014°16'1717.1
2017-Feb-12 11:33N 55°26' E 014°36'1716.8
2017-Feb-12 10:33N 55°35' E 014°60'35416.8
2017-Feb-11 13:29N 59°40' E 022°59'6 0.6
2017-Feb-11 03:33N 59°46' E 023°01'1717.1
2017-Feb-11 02:34N 59°42' E 023°34'5517.9
2017-Feb-10 23:29N 59°53' E 025°21'1616.4
2017-Feb-10 22:28N 59°58' E 025°53'1314.4
2017-Feb-10 21:33N 60°06' E 026°14'1515.0
2017-Feb-10 20:33N 60°18' E 026°32'  

Dump ship's entire track history